sensor_id;sensor_type;location;lat;lon;timestamp;pressure;altitude;pressure_sealevel;temperature
15544;BMP180;7873;52.230;12.856;2024-02-26T00:00:06;99621.97;;;28.88
15544;BMP180;7873;52.230;12.856;2024-02-26T00:02:35;99609.13;;;28.84
15544;BMP180;7873;52.230;12.856;2024-02-26T00:05:04;99615.75;;;28.76
15544;BMP180;7873;52.230;12.856;2024-02-26T00:07:31;99615.09;;;28.69
15544;BMP180;7873;52.230;12.856;2024-02-26T00:09:58;99613.31;;;28.63
15544;BMP180;7873;52.230;12.856;2024-02-26T00:12:24;99611.09;;;28.60
15544;BMP180;7873;52.230;12.856;2024-02-26T00:14:50;99607.22;;;28.56
15544;BMP180;7873;52.230;12.856;2024-02-26T00:17:18;99614.19;;;28.52
15544;BMP180;7873;52.230;12.856;2024-02-26T00:19:46;99607.59;;;28.48
15544;BMP180;7873;52.230;12.856;2024-02-26T00:22:12;99607.50;;;28.43
15544;BMP180;7873;52.230;12.856;2024-02-26T00:24:39;99603.84;;;28.38
15544;BMP180;7873;52.230;12.856;2024-02-26T00:27:06;99607.84;;;28.35
15544;BMP180;7873;52.230;12.856;2024-02-26T00:29:33;99606.22;;;28.34
15544;BMP180;7873;52.230;12.856;2024-02-26T00:31:59;99601.28;;;28.31
15544;BMP180;7873;52.230;12.856;2024-02-26T00:34:25;99594.22;;;28.30
15544;BMP180;7873;52.230;12.856;2024-02-26T00:36:53;99597.94;;;28.29
15544;BMP180;7873;52.230;12.856;2024-02-26T00:39:20;99595.47;;;28.28
15544;BMP180;7873;52.230;12.856;2024-02-26T00:41:46;99594.88;;;28.26
15544;BMP180;7873;52.230;12.856;2024-02-26T00:44:13;99596.22;;;28.23
15544;BMP180;7873;52.230;12.856;2024-02-26T00:46:39;99601.03;;;28.21
15544;BMP180;7873;52.230;12.856;2024-02-26T00:49:06;99591.50;;;28.19
15544;BMP180;7873;52.230;12.856;2024-02-26T00:51:32;99591.41;;;28.14
15544;BMP180;7873;52.230;12.856;2024-02-26T00:54:00;99586.69;;;28.09
15544;BMP180;7873;52.230;12.856;2024-02-26T00:56:26;99590.66;;;28.07
15544;BMP180;7873;52.230;12.856;2024-02-26T00:58:53;99589.28;;;28.04
15544;BMP180;7873;52.230;12.856;2024-02-26T01:01:19;99587.28;;;28.00
15544;BMP180;7873;52.230;12.856;2024-02-26T01:03:46;99578.56;;;27.98
15544;BMP180;7873;52.230;12.856;2024-02-26T01:06:12;99583.19;;;27.97
15544;BMP180;7873;52.230;12.856;2024-02-26T01:08:39;99583.88;;;27.93
15544;BMP180;7873;52.230;12.856;2024-02-26T01:11:07;99584.09;;;27.91
15544;BMP180;7873;52.230;12.856;2024-02-26T01:13:33;99572.09;;;27.87
15544;BMP180;7873;52.230;12.856;2024-02-26T01:16:00;99569.03;;;27.84
15544;BMP180;7873;52.230;12.856;2024-02-26T01:18:27;99576.34;;;27.83
15544;BMP180;7873;52.230;12.856;2024-02-26T01:20:53;99581.41;;;27.80
15544;BMP180;7873;52.230;12.856;2024-02-26T01:23:20;99579.41;;;27.75
15544;BMP180;7873;52.230;12.856;2024-02-26T01:25:46;99573.44;;;27.73
15544;BMP180;7873;52.230;12.856;2024-02-26T01:28:15;99573.88;;;27.70
15544;BMP180;7873;52.230;12.856;2024-02-26T01:30:42;99579.97;;;27.66
15544;BMP180;7873;52.230;12.856;2024-02-26T01:33:08;99580.44;;;27.63
15544;BMP180;7873;52.230;12.856;2024-02-26T01:35:35;99579.81;;;27.61
15544;BMP180;7873;52.230;12.856;2024-02-26T01:38:01;99580.28;;;27.58
15544;BMP180;7873;52.230;12.856;2024-02-26T01:40:28;99580.75;;;27.55
15544;BMP180;7873;52.230;12.856;2024-02-26T01:42:55;99573.13;;;27.52
15544;BMP180;7873;52.230;12.856;2024-02-26T01:45:23;99572.75;;;27.48
15544;BMP180;7873;52.230;12.856;2024-02-26T01:47:50;99574.88;;;27.46
15544;BMP180;7873;52.230;12.856;2024-02-26T01:50:17;99563.47;;;27.44
15544;BMP180;7873;52.230;12.856;2024-02-26T01:52:44;99560.19;;;27.42
15544;BMP180;7873;52.230;12.856;2024-02-26T01:55:12;99562.56;;;27.39
15544;BMP180;7873;52.230;12.856;2024-02-26T01:57:39;99565.25;;;27.39
15544;BMP180;7873;52.230;12.856;2024-02-26T02:00:07;99570.28;;;27.36
15544;BMP180;7873;52.230;12.856;2024-02-26T02:02:35;99568.06;;;27.33
15544;BMP180;7873;52.230;12.856;2024-02-26T02:05:04;99573.09;;;27.29
15544;BMP180;7873;52.230;12.856;2024-02-26T02:07:31;99577.91;;;27.27
15544;BMP180;7873;52.230;12.856;2024-02-26T02:09:58;99584.16;;;27.28
15544;BMP180;7873;52.230;12.856;2024-02-26T02:12:25;99578.13;;;27.26
15544;BMP180;7873;52.230;12.856;2024-02-26T02:14:52;99586.56;;;27.18
15544;BMP180;7873;52.230;12.856;2024-02-26T02:17:19;99582.81;;;27.19
15544;BMP180;7873;52.230;12.856;2024-02-26T02:19:46;99583.50;;;27.14
15544;BMP180;7873;52.230;12.856;2024-02-26T02:22:14;99586.47;;;27.13
15544;BMP180;7873;52.230;12.856;2024-02-26T02:24:41;99593.28;;;27.15
15544;BMP180;7873;52.230;12.856;2024-02-26T02:27:07;99593.72;;;27.12
15544;BMP180;7873;52.230;12.856;2024-02-26T02:29:34;99586.09;;;27.09
15544;BMP180;7873;52.230;12.856;2024-02-26T02:32:01;99586.31;;;27.08
15544;BMP180;7873;52.230;12.856;2024-02-26T02:34:30;99581.13;;;27.06
15544;BMP180;7873;52.230;12.856;2024-02-26T02:36:57;99578.41;;;27.06
15544;BMP180;7873;52.230;12.856;2024-02-26T02:39:25;99568.06;;;27.03
15544;BMP180;7873;52.230;12.856;2024-02-26T02:41:51;99569.72;;;27.04
15544;BMP180;7873;52.230;12.856;2024-02-26T02:44:18;99567.47;;;27.01
15544;BMP180;7873;52.230;12.856;2024-02-26T02:46:44;99566.63;;;27.01
15544;BMP180;7873;52.230;12.856;2024-02-26T02:49:11;99574.75;;;27.01
15544;BMP180;7873;52.230;12.856;2024-02-26T02:51:37;99578.50;;;27.00
15544;BMP180;7873;52.230;12.856;2024-02-26T02:54:04;99578.97;;;26.97
15544;BMP180;7873;52.230;12.856;2024-02-26T02:56:31;99575.47;;;26.96
15544;BMP180;7873;52.230;12.856;2024-02-26T02:58:58;99575.66;;;26.95
15544;BMP180;7873;52.230;12.856;2024-02-26T03:01:24;99584.63;;;26.95
15544;BMP180;7873;52.230;12.856;2024-02-26T03:03:51;99577.19;;;26.91
15544;BMP180;7873;52.230;12.856;2024-02-26T03:06:17;99584.25;;;26.92
15544;BMP180;7873;52.230;12.856;2024-02-26T03:08:44;99580.94;;;26.90
15544;BMP180;7873;52.230;12.856;2024-02-26T03:11:13;99584.91;;;26.87
15544;BMP180;7873;52.230;12.856;2024-02-26T03:13:41;99593.03;;;26.87
15544;BMP180;7873;52.230;12.856;2024-02-26T03:16:08;99589.97;;;26.84
15544;BMP180;7873;52.230;12.856;2024-02-26T03:18:35;99585.03;;;26.81
15544;BMP180;7873;52.230;12.856;2024-02-26T03:21:01;99579.00;;;26.79
15544;BMP180;7873;52.230;12.856;2024-02-26T03:23:27;99575.13;;;26.75
15544;BMP180;7873;52.230;12.856;2024-02-26T03:25:55;99584.53;;;26.72
15544;BMP180;7873;52.230;12.856;2024-02-26T03:28:21;99584.75;;;26.71
15544;BMP180;7873;52.230;12.856;2024-02-26T03:30:49;99588.50;;;26.70
15544;BMP180;7873;52.230;12.856;2024-02-26T03:33:15;99593.31;;;26.68
15544;BMP180;7873;52.230;12.856;2024-02-26T03:35:42;99580.84;;;26.67
15544;BMP180;7873;52.230;12.856;2024-02-26T03:38:09;99576.72;;;26.64
15544;BMP180;7873;52.230;12.856;2024-02-26T03:40:35;99580.47;;;26.63
15544;BMP180;7873;52.230;12.856;2024-02-26T03:43:02;99583.41;;;26.62
15544;BMP180;7873;52.230;12.856;2024-02-26T03:45:30;99581.97;;;26.59
15544;BMP180;7873;52.230;12.856;2024-02-26T03:47:58;99591.97;;;26.59
15544;BMP180;7873;52.230;12.856;2024-02-26T03:50:24;99585.34;;;26.55
15544;BMP180;7873;52.230;12.856;2024-02-26T03:52:51;99585.59;;;26.53
15544;BMP180;7873;52.230;12.856;2024-02-26T03:55:17;99594.50;;;26.54
15544;BMP180;7873;52.230;12.856;2024-02-26T03:57:50;99600.28;;;26.57
15544;BMP180;7873;52.230;12.856;2024-02-26T04:00:16;99605.03;;;26.62
15544;BMP180;7873;52.230;12.856;2024-02-26T04:02:43;99604.56;;;26.65
15544;BMP180;7873;52.230;12.856;2024-02-26T04:05:11;99601.19;;;26.69
15544;BMP180;7873;52.230;12.856;2024-02-26T04:07:38;99598.63;;;26.74
15544;BMP180;7873;52.230;12.856;2024-02-26T04:10:08;99601.66;;;26.78
15544;BMP180;7873;52.230;12.856;2024-02-26T04:12:35;99598.53;;;26.81
15544;BMP180;7873;52.230;12.856;2024-02-26T04:15:02;99611.00;;;26.82
15544;BMP180;7873;52.230;12.856;2024-02-26T04:17:28;99615.94;;;26.85
15544;BMP180;7873;52.230;12.856;2024-02-26T04:19:55;99629.44;;;26.85
15544;BMP180;7873;52.230;12.856;2024-02-26T04:22:23;99620.63;;;26.89
15544;BMP180;7873;52.230;12.856;2024-02-26T04:24:49;99619.81;;;26.89
15544;BMP180;7873;52.230;12.856;2024-02-26T04:27:16;99622.28;;;26.90
15544;BMP180;7873;52.230;12.856;2024-02-26T04:29:42;99625.34;;;26.94
15544;BMP180;7873;52.230;12.856;2024-02-26T04:32:09;99623.91;;;26.91
15544;BMP180;7873;52.230;12.856;2024-02-26T04:34:35;99625.31;;;26.82
15544;BMP180;7873;52.230;12.856;2024-02-26T04:37:02;99632.88;;;26.74
15544;BMP180;7873;52.230;12.856;2024-02-26T04:39:30;99628.72;;;26.60
15544;BMP180;7873;52.230;12.856;2024-02-26T04:41:57;99638.81;;;26.46
15544;BMP180;7873;52.230;12.856;2024-02-26T04:44:23;99639.69;;;26.40
15544;BMP180;7873;52.230;12.856;2024-02-26T04:46:50;99648.03;;;26.39
15544;BMP180;7873;52.230;12.856;2024-02-26T04:49:16;99640.41;;;26.36
15544;BMP180;7873;52.230;12.856;2024-02-26T04:51:43;99646.59;;;26.36
15544;BMP180;7873;52.230;12.856;2024-02-26T04:54:09;99646.22;;;26.33
15544;BMP180;7873;52.230;12.856;2024-02-26T04:56:37;99649.75;;;26.33
15544;BMP180;7873;52.230;12.856;2024-02-26T04:59:03;99647.06;;;26.33
15544;BMP180;7873;52.230;12.856;2024-02-26T05:01:30;99646.66;;;26.30
15544;BMP180;7873;52.230;12.856;2024-02-26T05:03:56;99650.22;;;26.30
15544;BMP180;7873;52.230;12.856;2024-02-26T05:06:23;99640.47;;;26.29
15544;BMP180;7873;52.230;12.856;2024-02-26T05:08:49;99643.75;;;26.31
15544;BMP180;7873;52.230;12.856;2024-02-26T05:11:16;99646.66;;;26.30
15544;BMP180;7873;52.230;12.856;2024-02-26T05:13:45;99634.81;;;26.31
15544;BMP180;7873;52.230;12.856;2024-02-26T05:16:11;99635.72;;;26.25
15544;BMP180;7873;52.230;12.856;2024-02-26T05:18:38;99634.84;;;26.13
15544;BMP180;7873;52.230;12.856;2024-02-26T05:21:04;99640.13;;;26.01
15544;BMP180;7873;52.230;12.856;2024-02-26T05:23:31;99632.81;;;25.84
15544;BMP180;7873;52.230;12.856;2024-02-26T05:25:57;99632.88;;;25.77
15544;BMP180;7873;52.230;12.856;2024-02-26T05:28:24;99636.25;;;25.66
15544;BMP180;7873;52.230;12.856;2024-02-26T05:30:52;99641.13;;;25.52
15544;BMP180;7873;52.230;12.856;2024-02-26T05:33:18;99639.78;;;25.43
15544;BMP180;7873;52.230;12.856;2024-02-26T05:35:45;99637.63;;;25.51
15544;BMP180;7873;52.230;12.856;2024-02-26T05:38:11;99637.97;;;25.61
15544;BMP180;7873;52.230;12.856;2024-02-26T05:40:38;99644.59;;;25.65
15544;BMP180;7873;52.230;12.856;2024-02-26T05:43:04;99648.03;;;25.72
15544;BMP180;7873;52.230;12.856;2024-02-26T05:45:31;99653.75;;;25.82
15544;BMP180;7873;52.230;12.856;2024-02-26T05:47:59;99653.34;;;25.85
15544;BMP180;7873;52.230;12.856;2024-02-26T05:50:26;99648.53;;;25.87
15544;BMP180;7873;52.230;12.856;2024-02-26T05:52:52;99659.13;;;25.88
15544;BMP180;7873;52.230;12.856;2024-02-26T05:55:19;99658.31;;;25.88
15544;BMP180;7873;52.230;12.856;2024-02-26T05:57:45;99665.97;;;25.91
15544;BMP180;7873;52.230;12.856;2024-02-26T06:00:12;99667.63;;;25.92
15544;BMP180;7873;52.230;12.856;2024-02-26T06:02:39;99661.63;;;25.90
15544;BMP180;7873;52.230;12.856;2024-02-26T06:05:07;99666.16;;;25.89
15544;BMP180;7873;52.230;12.856;2024-02-26T06:07:34;99671.81;;;25.88
15544;BMP180;7873;52.230;12.856;2024-02-26T06:10:01;99673.47;;;25.89
15544;BMP180;7873;52.230;12.856;2024-02-26T06:12:27;99679.66;;;25.89
15544;BMP180;7873;52.230;12.856;2024-02-26T06:14:56;99686.09;;;25.88
15544;BMP180;7873;52.230;12.856;2024-02-26T06:17:22;99689.00;;;25.87
15544;BMP180;7873;52.230;12.856;2024-02-26T06:19:49;99689.84;;;25.87
15544;BMP180;7873;52.230;12.856;2024-02-26T06:22:16;99689.84;;;25.87
15544;BMP180;7873;52.230;12.856;2024-02-26T06:24:43;99688.19;;;25.86
15544;BMP180;7873;52.230;12.856;2024-02-26T06:27:09;99692.97;;;25.84
15544;BMP180;7873;52.230;12.856;2024-02-26T06:29:36;99696.28;;;25.80
15544;BMP180;7873;52.230;12.856;2024-02-26T06:32:03;99700.28;;;25.77
15544;BMP180;7873;52.230;12.856;2024-02-26T06:34:29;99699.44;;;25.77
15544;BMP180;7873;52.230;12.856;2024-02-26T06:36:56;99692.28;;;25.64
15544;BMP180;7873;52.230;12.856;2024-02-26T06:39:24;99697.13;;;25.50
15544;BMP180;7873;52.230;12.856;2024-02-26T06:41:50;99709.25;;;25.34
15544;BMP180;7873;52.230;12.856;2024-02-26T06:44:23;99712.84;;;25.15
15544;BMP180;7873;52.230;12.856;2024-02-26T06:46:50;99718.59;;;24.88
15544;BMP180;7873;52.230;12.856;2024-02-26T06:49:16;99721.56;;;24.47
15544;BMP180;7873;52.230;12.856;2024-02-26T06:51:43;99728.84;;;24.01
15544;BMP180;7873;52.230;12.856;2024-02-26T06:54:09;99725.72;;;23.72
15544;BMP180;7873;52.230;12.856;2024-02-26T06:56:37;99733.53;;;23.48
15544;BMP180;7873;52.230;12.856;2024-02-26T06:59:03;99731.84;;;23.27
15544;BMP180;7873;52.230;12.856;2024-02-26T07:01:30;99736.34;;;23.14
15544;BMP180;7873;52.230;12.856;2024-02-26T07:03:57;99738.31;;;22.99
15544;BMP180;7873;52.230;12.856;2024-02-26T07:06:23;99741.75;;;22.86
15544;BMP180;7873;52.230;12.856;2024-02-26T07:08:50;99739.44;;;22.77
15544;BMP180;7873;52.230;12.856;2024-02-26T07:11:16;99742.63;;;22.93
15544;BMP180;7873;52.230;12.856;2024-02-26T07:13:45;99728.53;;;23.25
15544;BMP180;7873;52.230;12.856;2024-02-26T07:16:12;99726.50;;;23.47
15544;BMP180;7873;52.230;12.856;2024-02-26T07:18:38;99731.91;;;23.66
15544;BMP180;7873;52.230;12.856;2024-02-26T07:21:05;99730.09;;;23.79
15544;BMP180;7873;52.230;12.856;2024-02-26T07:23:32;99728.25;;;23.99
15544;BMP180;7873;52.230;12.856;2024-02-26T07:25:59;99717.28;;;24.14
15544;BMP180;7873;52.230;12.856;2024-02-26T07:28:25;99720.38;;;24.24
15544;BMP180;7873;52.230;12.856;2024-02-26T07:30:53;99717.44;;;24.32
15544;BMP180;7873;52.230;12.856;2024-02-26T07:33:20;99719.34;;;24.38
15544;BMP180;7873;52.230;12.856;2024-02-26T07:35:46;99720.56;;;24.42
15544;BMP180;7873;52.230;12.856;2024-02-26T07:38:13;99721.97;;;24.44
15544;BMP180;7873;52.230;12.856;2024-02-26T07:40:39;99719.91;;;24.46
15544;BMP180;7873;52.230;12.856;2024-02-26T07:43:06;99730.47;;;24.48
15544;BMP180;7873;52.230;12.856;2024-02-26T07:45:32;99725.09;;;24.48
15544;BMP180;7873;52.230;12.856;2024-02-26T07:48:00;99726.75;;;24.49
15544;BMP180;7873;52.230;12.856;2024-02-26T07:50:26;99729.44;;;24.49
15544;BMP180;7873;52.230;12.856;2024-02-26T07:52:53;99727.59;;;24.49
15544;BMP180;7873;52.230;12.856;2024-02-26T07:55:19;99732.97;;;24.49
15544;BMP180;7873;52.230;12.856;2024-02-26T07:57:47;99734.63;;;24.50
15544;BMP180;7873;52.230;12.856;2024-02-26T08:00:14;99732.78;;;24.51
15544;BMP180;7873;52.230;12.856;2024-02-26T08:02:42;99738.16;;;24.51
15544;BMP180;7873;52.230;12.856;2024-02-26T08:05:10;99737.31;;;24.50
15544;BMP180;7873;52.230;12.856;2024-02-26T08:07:36;99746.22;;;24.51
15544;BMP180;7873;52.230;12.856;2024-02-26T08:10:03;99745.38;;;24.50
15544;BMP180;7873;52.230;12.856;2024-02-26T08:12:30;99741.69;;;24.51
15544;BMP180;7873;52.230;12.856;2024-02-26T08:14:56;99747.88;;;24.52
15544;BMP180;7873;52.230;12.856;2024-02-26T08:17:23;99753.28;;;24.52
15544;BMP180;7873;52.230;12.856;2024-02-26T08:19:50;99750.78;;;24.50
15544;BMP180;7873;52.230;12.856;2024-02-26T08:22:17;99750.78;;;24.50
15544;BMP180;7873;52.230;12.856;2024-02-26T08:24:44;99752.63;;;24.50
15544;BMP180;7873;52.230;12.856;2024-02-26T08:27:11;99743.94;;;24.48
15544;BMP180;7873;52.230;12.856;2024-02-26T08:29:37;99749.50;;;24.46
15544;BMP180;7873;52.230;12.856;2024-02-26T08:32:04;99756.16;;;24.44
15544;BMP180;7873;52.230;12.856;2024-02-26T08:34:32;99754.69;;;24.41
15544;BMP180;7873;52.230;12.856;2024-02-26T08:36:58;99755.97;;;24.39
15544;BMP180;7873;52.230;12.856;2024-02-26T08:39:26;99759.88;;;24.36
15544;BMP180;7873;52.230;12.856;2024-02-26T08:41:53;99760.31;;;24.33
15544;BMP180;7873;52.230;12.856;2024-02-26T08:44:19;99758.66;;;24.32
15544;BMP180;7873;52.230;12.856;2024-02-26T08:46:46;99759.25;;;24.28
15544;BMP180;7873;52.230;12.856;2024-02-26T08:49:12;99758.84;;;24.24
15544;BMP180;7873;52.230;12.856;2024-02-26T08:51:41;99759.50;;;24.20
15544;BMP180;7873;52.230;12.856;2024-02-26T08:54:08;99750.19;;;24.16
15544;BMP180;7873;52.230;12.856;2024-02-26T08:56:35;99758.44;;;24.14
15544;BMP180;7873;52.230;12.856;2024-02-26T08:59:02;99751.41;;;24.13
15544;BMP180;7873;52.230;12.856;2024-02-26T09:01:29;99754.94;;;24.14
15544;BMP180;7873;52.230;12.856;2024-02-26T09:03:55;99757.84;;;24.12
15544;BMP180;7873;52.230;12.856;2024-02-26T09:06:22;99744.38;;;24.12
15544;BMP180;7873;52.230;12.856;2024-02-26T09:08:48;99747.88;;;24.13
15544;BMP180;7873;52.230;12.856;2024-02-26T09:11:15;99755.94;;;24.13
15544;BMP180;7873;52.230;12.856;2024-02-26T09:13:43;99760.31;;;24.14
15544;BMP180;7873;52.230;12.856;2024-02-26T09:16:11;99760.31;;;24.14
15544;BMP180;7873;52.230;12.856;2024-02-26T09:18:38;99760.09;;;24.15
15544;BMP180;7873;52.230;12.856;2024-02-26T09:21:05;99763.63;;;24.16
15544;BMP180;7873;52.230;12.856;2024-02-26T09:23:31;99757.00;;;24.18
15544;BMP180;7873;52.230;12.856;2024-02-26T09:25:58;99762.38;;;24.18
15544;BMP180;7873;52.230;12.856;2024-02-26T09:28:25;99763.84;;;24.21
15544;BMP180;7873;52.230;12.856;2024-02-26T09:30:52;99763.00;;;24.20
15544;BMP180;7873;52.230;12.856;2024-02-26T09:33:19;99768.38;;;24.20
15544;BMP180;7873;52.230;12.856;2024-02-26T09:35:46;99777.47;;;24.19
15544;BMP180;7873;52.230;12.856;2024-02-26T09:38:12;99771.28;;;24.19
15544;BMP180;7873;52.230;12.856;2024-02-26T09:40:39;99771.69;;;24.16
15544;BMP180;7873;52.230;12.856;2024-02-26T09:43:07;99775.44;;;24.15
15544;BMP180;7873;52.230;12.856;2024-02-26T09:45:36;99772.94;;;24.13
15544;BMP180;7873;52.230;12.856;2024-02-26T09:48:06;99766.94;;;24.11
15544;BMP180;7873;52.230;12.856;2024-02-26T09:50:34;99778.13;;;24.08
15544;BMP180;7873;52.230;12.856;2024-02-26T09:53:01;99775.63;;;24.07
15544;BMP180;7873;52.230;12.856;2024-02-26T09:55:28;99782.03;;;24.06
15544;BMP180;7873;52.230;12.856;2024-02-26T09:57:55;99779.56;;;24.04
15544;BMP180;7873;52.230;12.856;2024-02-26T10:00:22;99770.88;;;24.02
15544;BMP180;7873;52.230;12.856;2024-02-26T10:02:49;99771.06;;;24.01
15544;BMP180;7873;52.230;12.856;2024-02-26T10:05:18;99778.28;;;24.00
15544;BMP180;7873;52.230;12.856;2024-02-26T10:07:45;99775.59;;;24.00
15544;BMP180;7873;52.230;12.856;2024-02-26T10:10:13;99771.25;;;23.99
15544;BMP180;7873;52.230;12.856;2024-02-26T10:12:40;99772.28;;;23.98
15544;BMP180;7873;52.230;12.856;2024-02-26T10:15:07;99787.63;;;23.98
15544;BMP180;7873;52.230;12.856;2024-02-26T10:17:34;99782.25;;;23.98
15544;BMP180;7873;52.230;12.856;2024-02-26T10:20:12;99781.41;;;23.97
15544;BMP180;7873;52.230;12.856;2024-02-26T10:22:40;99780.38;;;23.98
15544;BMP180;7873;52.230;12.856;2024-02-26T10:25:07;99773.34;;;23.97
15544;BMP180;7873;52.230;12.856;2024-02-26T10:27:34;99768.78;;;23.98
15544;BMP180;7873;52.230;12.856;2024-02-26T10:30:02;99776.63;;;23.99
15544;BMP180;7873;52.230;12.856;2024-02-26T10:32:30;99782.88;;;24.00
15544;BMP180;7873;52.230;12.856;2024-02-26T10:34:56;99775.59;;;24.00
15544;BMP180;7873;52.230;12.856;2024-02-26T10:37:23;99782.00;;;23.99
15544;BMP180;7873;52.230;12.856;2024-02-26T10:39:51;99779.13;;;24.01
15544;BMP180;7873;52.230;12.856;2024-02-26T10:42:18;99777.47;;;24.00
15544;BMP180;7873;52.230;12.856;2024-02-26T10:44:45;99780.16;;;24.00
15544;BMP180;7873;52.230;12.856;2024-02-26T10:47:14;99788.25;;;24.00
15544;BMP180;7873;52.230;12.856;2024-02-26T10:49:45;99785.56;;;24.00
15544;BMP180;7873;52.230;12.856;2024-02-26T10:52:12;99779.13;;;24.01
15544;BMP180;7873;52.230;12.856;2024-02-26T10:54:41;99788.00;;;24.01
15544;BMP180;7873;52.230;12.856;2024-02-26T10:57:11;99784.31;;;24.02
15544;BMP180;7873;52.230;12.856;2024-02-26T10:59:39;99788.84;;;24.02
15544;BMP180;7873;52.230;12.856;2024-02-26T11:02:07;99788.84;;;24.02
15544;BMP180;7873;52.230;12.856;2024-02-26T11:04:35;99787.19;;;24.01
15544;BMP180;7873;52.230;12.856;2024-02-26T11:07:03;99779.31;;;23.99
15544;BMP180;7873;52.230;12.856;2024-02-26T11:09:32;99784.69;;;23.99
15544;BMP180;7873;52.230;12.856;2024-02-26T11:11:59;99786.59;;;23.99
15544;BMP180;7873;52.230;12.856;2024-02-26T11:14:29;99786.59;;;23.99
15544;BMP180;7873;52.230;12.856;2024-02-26T11:16:57;99781.41;;;23.97
15544;BMP180;7873;52.230;12.856;2024-02-26T11:19:24;99788.66;;;23.97
15544;BMP180;7873;52.230;12.856;2024-02-26T11:21:52;99789.47;;;23.97
15544;BMP180;7873;52.230;12.856;2024-02-26T11:24:19;99784.09;;;23.97
15544;BMP180;7873;52.230;12.856;2024-02-26T11:26:48;99774.59;;;23.95
15544;BMP180;7873;52.230;12.856;2024-02-26T11:29:19;99780.16;;;23.93
15544;BMP180;7873;52.230;12.856;2024-02-26T11:31:48;99782.03;;;23.93
15544;BMP180;7873;52.230;12.856;2024-02-26T11:34:16;99788.63;;;23.90
15544;BMP180;7873;52.230;12.856;2024-02-26T11:36:44;99775.19;;;23.90
15544;BMP180;7873;52.230;12.856;2024-02-26T11:39:11;99774.34;;;23.90
15544;BMP180;7873;52.230;12.856;2024-02-26T11:41:38;99773.53;;;23.89
15544;BMP180;7873;52.230;12.856;2024-02-26T11:44:05;99775.19;;;23.90
15544;BMP180;7873;52.230;12.856;2024-02-26T11:46:33;99768.97;;;23.90
15544;BMP180;7873;52.230;12.856;2024-02-26T11:49:31;99768.16;;;23.89
15544;BMP180;7873;52.230;12.856;2024-02-26T11:51:59;99770.84;;;23.89
15544;BMP180;7873;52.230;12.856;2024-02-26T11:54:46;99771.03;;;23.88
15544;BMP180;7873;52.230;12.856;2024-02-26T11:57:24;99770.00;;;23.89
15544;BMP180;7873;52.230;12.856;2024-02-26T11:59:51;99766.50;;;23.88
15544;BMP180;7873;52.230;12.856;2024-02-26T12:02:45;99768.34;;;23.88
15544;BMP180;7873;52.230;12.856;2024-02-26T12:05:15;99768.34;;;23.88
15544;BMP180;7873;52.230;12.856;2024-02-26T12:07:44;99770.00;;;23.89
15544;BMP180;7873;52.230;12.856;2024-02-26T12:10:23;99774.56;;;23.88
15544;BMP180;7873;52.230;12.856;2024-02-26T12:12:53;99772.69;;;23.89
15544;BMP180;7873;52.230;12.856;2024-02-26T12:15:22;99772.91;;;23.87
15544;BMP180;7873;52.230;12.856;2024-02-26T12:17:49;99770.84;;;23.89
15544;BMP180;7873;52.230;12.856;2024-02-26T12:20:18;99772.50;;;23.90
15544;BMP180;7873;52.230;12.856;2024-02-26T12:22:46;99774.34;;;23.90
15544;BMP180;7873;52.230;12.856;2024-02-26T12:25:13;99772.50;;;23.90
15544;BMP180;7873;52.230;12.856;2024-02-26T12:27:40;99775.19;;;23.90
15544;BMP180;7873;52.230;12.856;2024-02-26T12:30:09;99774.16;;;23.91
15544;BMP180;7873;52.230;12.856;2024-02-26T12:32:35;99775.19;;;23.90
15544;BMP180;7873;52.230;12.856;2024-02-26T12:35:02;99773.53;;;23.89
15544;BMP180;7873;52.230;12.856;2024-02-26T12:37:32;99775.38;;;23.89
15544;BMP180;7873;52.230;12.856;2024-02-26T12:39:58;99783.69;;;23.87
15544;BMP180;7873;52.230;12.856;2024-02-26T12:42:25;99771.03;;;23.88
15544;BMP180;7873;52.230;12.856;2024-02-26T12:44:52;99762.34;;;23.86
15544;BMP180;7873;52.230;12.856;2024-02-26T12:47:18;99766.94;;;23.85
15544;BMP180;7873;52.230;12.856;2024-02-26T12:49:47;99769.63;;;23.85
15544;BMP180;7873;52.230;12.856;2024-02-26T12:52:13;99775.19;;;23.84
15544;BMP180;7873;52.230;12.856;2024-02-26T12:54:42;99767.13;;;23.84
15544;BMP180;7873;52.230;12.856;2024-02-26T12:57:09;99770.19;;;23.81
15544;BMP180;7873;52.230;12.856;2024-02-26T12:59:36;99775.56;;;23.81
15544;BMP180;7873;52.230;12.856;2024-02-26T13:02:04;99774.75;;;23.80
15544;BMP180;7873;52.230;12.856;2024-02-26T13:04:31;99773.09;;;23.79
15544;BMP180;7873;52.230;12.856;2024-02-26T13:06:57;99780.31;;;23.79
15544;BMP180;7873;52.230;12.856;2024-02-26T13:09:32;99786.72;;;23.78
15544;BMP180;7873;52.230;12.856;2024-02-26T13:12:00;99781.34;;;23.78
15544;BMP180;7873;52.230;12.856;2024-02-26T13:14:30;99784.22;;;23.76
15544;BMP180;7873;52.230;12.856;2024-02-26T13:16:57;99793.13;;;23.77
15544;BMP180;7873;52.230;12.856;2024-02-26T13:19:24;99791.47;;;23.76
15544;BMP180;7873;52.230;12.856;2024-02-26T13:21:50;99791.69;;;23.74
15544;BMP180;7873;52.230;12.856;2024-02-26T13:24:20;99797.03;;;23.74
15544;BMP180;7873;52.230;12.856;2024-02-26T13:26:53;99800.78;;;23.73
15544;BMP180;7873;52.230;12.856;2024-02-26T13:29:21;99798.31;;;23.72
15544;BMP180;7873;52.230;12.856;2024-02-26T13:31:53;99801.19;;;23.71
15544;BMP180;7873;52.230;12.856;2024-02-26T13:34:23;99793.34;;;23.69
15544;BMP180;7873;52.230;12.856;2024-02-26T13:36:51;99798.09;;;23.67
15544;BMP180;7873;52.230;12.856;2024-02-26T13:39:22;99797.25;;;23.67
15544;BMP180;7873;52.230;12.856;2024-02-26T13:41:49;99795.59;;;23.66
15544;BMP180;7873;52.230;12.856;2024-02-26T13:44:15;99794.97;;;23.64
15544;BMP180;7873;52.230;12.856;2024-02-26T13:46:43;99805.72;;;23.64
15544;BMP180;7873;52.230;12.856;2024-02-26T13:49:09;99813.78;;;23.64
15544;BMP180;7873;52.230;12.856;2024-02-26T13:51:36;99819.34;;;23.62
15544;BMP180;7873;52.230;12.856;2024-02-26T13:54:03;99812.31;;;23.61
15544;BMP180;7873;52.230;12.856;2024-02-26T13:56:29;99820.38;;;23.61
15544;BMP180;7873;52.230;12.856;2024-02-26T13:58:55;99829.47;;;23.60
15544;BMP180;7873;52.230;12.856;2024-02-26T14:01:22;99820.59;;;23.60
15544;BMP180;7873;52.230;12.856;2024-02-26T14:03:50;99828.66;;;23.60
15544;BMP180;7873;52.230;12.856;2024-02-26T14:06:16;99831.34;;;23.60
15544;BMP180;7873;52.230;12.856;2024-02-26T14:08:43;99836.91;;;23.58